sensor_id;sensor_type;location;lat;lon;timestamp;P1;durP1;ratioP1;P2;durP2;ratioP2
64467;SDS011;50853;46.836;16.820;2022-12-07T17:58:12;15.75;;;8.80;;
64467;SDS011;50853;46.836;16.820;2022-12-07T18:00:38;30.77;;;9.32;;
64467;SDS011;50853;46.836;16.820;2022-12-07T18:03:05;16.35;;;9.48;;
64467;SDS011;50853;46.836;16.820;2022-12-07T18:05:36;16.80;;;9.52;;
64467;SDS011;50853;46.836;16.820;2022-12-07T18:08:03;15.07;;;9.00;;
64467;SDS011;50853;46.836;16.820;2022-12-07T18:10:30;21.75;;;9.07;;
64467;SDS011;50853;46.836;16.820;2022-12-07T18:12:55;26.75;;;10.60;;
64467;SDS011;50853;46.836;16.820;2022-12-07T18:15:41;21.30;;;9.07;;
64467;SDS011;50853;46.836;16.820;2022-12-07T18:18:07;15.45;;;9.00;;
64467;SDS011;50853;46.836;16.820;2022-12-07T18:20:33;18.05;;;10.13;;
64467;SDS011;50853;46.836;16.820;2022-12-07T18:22:59;17.95;;;8.95;;
64467;SDS011;50853;46.836;16.820;2022-12-07T18:25:25;17.38;;;8.30;;
64467;SDS011;50853;46.836;16.820;2022-12-07T18:27:51;21.63;;;9.25;;
64467;SDS011;50853;46.836;16.820;2022-12-07T18:30:17;13.93;;;8.48;;
64467;SDS011;50853;46.836;16.820;2022-12-07T18:32:42;22.17;;;8.95;;
64467;SDS011;50853;46.836;16.820;2022-12-07T18:35:08;20.75;;;9.27;;
64467;SDS011;50853;46.836;16.820;2022-12-07T18:37:34;18.42;;;9.35;;
64467;SDS011;50853;46.836;16.820;2022-12-07T18:40:00;14.30;;;8.18;;
64467;SDS011;50853;46.836;16.820;2022-12-07T18:42:25;12.52;;;8.52;;
64467;SDS011;50853;46.836;16.820;2022-12-07T18:44:51;14.25;;;8.80;;
64467;SDS011;50853;46.836;16.820;2022-12-07T18:47:17;18.85;;;9.05;;
64467;SDS011;50853;46.836;16.820;2022-12-07T18:49:43;18.58;;;9.75;;
64467;SDS011;50853;46.836;16.820;2022-12-07T18:52:08;24.50;;;11.07;;
64467;SDS011;50853;46.836;16.820;2022-12-07T18:54:34;25.58;;;10.52;;
64467;SDS011;50853;46.836;16.820;2022-12-07T18:57:00;18.33;;;10.68;;
64467;SDS011;50853;46.836;16.820;2022-12-07T18:59:26;15.70;;;9.77;;
64467;SDS011;50853;46.836;16.820;2022-12-07T19:02:10;19.15;;;10.63;;
64467;SDS011;50853;46.836;16.820;2022-12-07T19:04:36;23.23;;;10.23;;
64467;SDS011;50853;46.836;16.820;2022-12-07T19:07:02;17.10;;;9.20;;
64467;SDS011;50853;46.836;16.820;2022-12-07T19:09:27;17.23;;;9.60;;
64467;SDS011;50853;46.836;16.820;2022-12-07T19:11:53;14.20;;;9.47;;
64467;SDS011;50853;46.836;16.820;2022-12-07T19:16:52;17.45;;;10.18;;
64467;SDS011;50853;46.836;16.820;2022-12-07T19:19:21;15.80;;;9.57;;
64467;SDS011;50853;46.836;16.820;2022-12-07T19:21:49;11.95;;;8.27;;
64467;SDS011;50853;46.836;16.820;2022-12-07T19:24:15;18.85;;;9.10;;
64467;SDS011;50853;46.836;16.820;2022-12-07T19:26:41;16.63;;;8.98;;
64467;SDS011;50853;46.836;16.820;2022-12-07T19:29:07;16.50;;;8.73;;
64467;SDS011;50853;46.836;16.820;2022-12-07T19:31:33;14.82;;;9.02;;
64467;SDS011;50853;46.836;16.820;2022-12-07T19:34:00;12.02;;;8.57;;
64467;SDS011;50853;46.836;16.820;2022-12-07T19:36:25;16.20;;;8.43;;
64467;SDS011;50853;46.836;16.820;2022-12-07T19:38:52;17.00;;;8.77;;
64467;SDS011;50853;46.836;16.820;2022-12-07T19:41:18;12.40;;;7.70;;
64467;SDS011;50853;46.836;16.820;2022-12-07T19:44:03;11.75;;;7.97;;
64467;SDS011;50853;46.836;16.820;2022-12-07T19:46:30;13.23;;;8.55;;
64467;SDS011;50853;46.836;16.820;2022-12-07T19:48:56;14.67;;;8.43;;
64467;SDS011;50853;46.836;16.820;2022-12-07T19:51:23;14.13;;;8.40;;
64467;SDS011;50853;46.836;16.820;2022-12-07T19:53:49;11.20;;;7.07;;
64467;SDS011;50853;46.836;16.820;2022-12-07T19:56:15;11.70;;;8.93;;
64467;SDS011;50853;46.836;16.820;2022-12-07T19:58:42;13.73;;;8.57;;
64467;SDS011;50853;46.836;16.820;2022-12-07T20:01:08;12.20;;;7.70;;
64467;SDS011;50853;46.836;16.820;2022-12-07T20:03:34;10.98;;;7.75;;
64467;SDS011;50853;46.836;16.820;2022-12-07T20:06:00;12.80;;;8.20;;
64467;SDS011;50853;46.836;16.820;2022-12-07T20:08:26;11.05;;;7.63;;
64467;SDS011;50853;46.836;16.820;2022-12-07T20:10:51;14.40;;;7.53;;
64467;SDS011;50853;46.836;16.820;2022-12-07T20:13:18;13.10;;;8.25;;
64467;SDS011;50853;46.836;16.820;2022-12-07T20:15:55;11.65;;;8.38;;
64467;SDS011;50853;46.836;16.820;2022-12-07T20:18:21;14.70;;;10.23;;
64467;SDS011;50853;46.836;16.820;2022-12-07T20:20:57;14.17;;;10.33;;
64467;SDS011;50853;46.836;16.820;2022-12-07T20:23:24;15.60;;;10.80;;
64467;SDS011;50853;46.836;16.820;2022-12-07T20:25:51;14.32;;;10.27;;
64467;SDS011;50853;46.836;16.820;2022-12-07T20:28:16;13.70;;;10.80;;
64467;SDS011;50853;46.836;16.820;2022-12-07T20:30:49;13.90;;;10.05;;
64467;SDS011;50853;46.836;16.820;2022-12-07T20:33:17;14.25;;;9.45;;
64467;SDS011;50853;46.836;16.820;2022-12-07T20:38:09;12.97;;;8.87;;
64467;SDS011;50853;46.836;16.820;2022-12-07T20:40:36;16.47;;;8.80;;
64467;SDS011;50853;46.836;16.820;2022-12-07T20:45:28;12.90;;;7.75;;
64467;SDS011;50853;46.836;16.820;2022-12-07T20:47:54;11.50;;;7.27;;
64467;SDS011;50853;46.836;16.820;2022-12-07T20:50:20;10.35;;;7.63;;
64467;SDS011;50853;46.836;16.820;2022-12-07T20:52:46;13.55;;;7.45;;
64467;SDS011;50853;46.836;16.820;2022-12-07T20:55:12;12.07;;;7.85;;
64467;SDS011;50853;46.836;16.820;2022-12-07T20:57:38;11.85;;;6.75;;
64467;SDS011;50853;46.836;16.820;2022-12-07T21:00:07;10.13;;;6.93;;
64467;SDS011;50853;46.836;16.820;2022-12-07T21:02:34;10.60;;;7.00;;
64467;SDS011;50853;46.836;16.820;2022-12-07T21:05:02;10.55;;;7.05;;
64467;SDS011;50853;46.836;16.820;2022-12-07T21:07:28;10.13;;;6.25;;
64467;SDS011;50853;46.836;16.820;2022-12-07T21:09:54;12.85;;;6.30;;
64467;SDS011;50853;46.836;16.820;2022-12-07T21:12:20;11.65;;;6.40;;
64467;SDS011;50853;46.836;16.820;2022-12-07T21:14:46;7.38;;;5.60;;
64467;SDS011;50853;46.836;16.820;2022-12-07T21:17:11;7.73;;;6.17;;
64467;SDS011;50853;46.836;16.820;2022-12-07T21:19:37;7.93;;;6.37;;
